createdAt,value
2017-08-14T00:01:08.587Z,9.90
2017-08-14T00:03:37.624Z,8.23
2017-08-14T00:06:05.877Z,9.40
2017-08-14T00:08:34.918Z,9.00
2017-08-14T00:11:03.160Z,9.23
2017-08-14T00:13:31.456Z,9.47
2017-08-14T00:16:00.484Z,10.80
2017-08-14T00:18:28.738Z,9.37
2017-08-14T00:20:57.034Z,10.57
2017-08-14T00:23:25.280Z,9.77
2017-08-14T00:25:53.552Z,8.90
2017-08-14T00:28:21.773Z,10.50
2017-08-14T00:30:50.019Z,10.30
2017-08-14T00:33:18.321Z,10.37
2017-08-14T00:35:46.594Z,9.33
2017-08-14T00:38:14.855Z,10.40
2017-08-14T00:40:43.139Z,10.70
2017-08-14T00:43:11.406Z,9.47
2017-08-14T00:45:39.783Z,10.53
2017-08-14T00:48:08.063Z,9.87
2017-08-14T00:50:36.361Z,13.30
2017-08-14T00:53:04.582Z,12.80
2017-08-14T00:55:32.884Z,10.97
2017-08-14T00:58:01.274Z,12.63
2017-08-14T01:00:29.492Z,11.80
2017-08-14T01:02:58.545Z,10.07
2017-08-14T01:05:26.829Z,10.53
2017-08-14T01:07:55.523Z,10.97
2017-08-14T01:10:23.736Z,10.33
2017-08-14T01:12:52.765Z,9.70
2017-08-14T01:15:21.045Z,10.57
2017-08-14T01:17:49.337Z,9.70
2017-08-14T01:20:17.597Z,9.90
2017-08-14T01:22:45.862Z,10.80
2017-08-14T01:25:14.890Z,9.00
2017-08-14T01:27:43.162Z,10.00
2017-08-14T01:30:11.431Z,10.60
2017-08-14T01:32:39.668Z,9.20
2017-08-14T01:35:08.685Z,9.43
2017-08-14T01:37:36.936Z,9.67
2017-08-14T01:40:05.957Z,11.00
2017-08-14T01:42:34.218Z,10.30
2017-08-14T01:45:03.261Z,9.57
2017-08-14T01:47:31.494Z,10.40
2017-08-14T01:49:59.762Z,9.50
2017-08-14T01:52:28.783Z,10.50
2017-08-14T01:54:57.080Z,11.87
2017-08-14T01:57:25.310Z,11.00
2017-08-14T01:59:54.375Z,12.27
2017-08-14T02:02:22.625Z,11.50
2017-08-14T02:04:50.876Z,12.10
2017-08-14T02:07:19.135Z,12.37
2017-08-14T02:09:49.200Z,11.77
2017-08-14T02:12:17.426Z,12.07
2017-08-14T02:14:46.466Z,11.67
2017-08-14T02:17:14.691Z,11.80
2017-08-14T02:19:42.951Z,11.60
2017-08-14T02:22:11.222Z,12.20
2017-08-14T02:24:39.463Z,11.67
2017-08-14T02:27:07.723Z,12.30
2017-08-14T02:29:35.975Z,10.80
2017-08-14T02:32:05.024Z,11.87
2017-08-14T02:34:33.257Z,11.87
2017-08-14T02:37:02.282Z,12.77
2017-08-14T02:39:30.552Z,12.80
2017-08-14T02:41:58.790Z,12.50
2017-08-14T02:44:27.088Z,12.67
2017-08-14T02:46:55.309Z,13.60
2017-08-14T02:49:23.561Z,13.27
2017-08-14T02:51:51.841Z,12.10
2017-08-14T02:54:20.134Z,13.53
2017-08-14T02:56:48.384Z,12.13
2017-08-14T02:59:16.665Z,12.57
2017-08-14T03:01:44.913Z,11.77
2017-08-14T03:04:13.162Z,12.30
2017-08-14T03:06:41.412Z,13.03
2017-08-14T03:09:09.673Z,11.63
2017-08-14T03:11:38.710Z,12.10
2017-08-14T03:14:06.974Z,12.83
2017-08-14T03:16:35.233Z,12.10
2017-08-14T03:19:03.530Z,11.50
2017-08-14T03:21:31.786Z,12.33
2017-08-14T03:24:00.275Z,11.43
2017-08-14T03:26:28.521Z,11.40
2017-08-14T03:28:57.565Z,12.17
2017-08-14T03:31:25.838Z,12.80
2017-08-14T03:33:54.081Z,12.47
2017-08-14T03:36:23.125Z,13.17
2017-08-14T03:38:51.346Z,12.80
2017-08-14T03:41:20.378Z,12.27
2017-08-14T03:43:48.610Z,12.57
2017-08-14T03:46:17.642Z,10.67
2017-08-14T03:48:45.906Z,11.90
2017-08-14T03:51:14.158Z,11.97
2017-08-14T03:53:42.766Z,11.90
2017-08-14T03:56:11.782Z,11.40
2017-08-14T03:58:40.042Z,11.50
2017-08-14T04:01:08.323Z,12.30
2017-08-14T04:03:36.586Z,12.13
2017-08-14T04:06:04.912Z,16.70
2017-08-14T04:08:33.202Z,12.30
2017-08-14T04:11:01.522Z,11.77
2017-08-14T04:13:30.542Z,12.10
2017-08-14T04:16:01.751Z,11.63
2017-08-14T04:18:30.786Z,12.20
2017-08-14T04:20:59.039Z,11.40
2017-08-14T04:23:27.296Z,11.53
2017-08-14T04:25:56.321Z,13.30
2017-08-14T04:28:24.543Z,11.17
2017-08-14T04:30:52.818Z,10.33
2017-08-14T04:33:21.047Z,11.10
2017-08-14T04:35:49.336Z,10.57
2017-08-14T04:38:17.619Z,11.70
2017-08-14T04:40:45.850Z,11.73
2017-08-14T04:43:14.879Z,12.27
2017-08-14T04:45:43.139Z,11.50
2017-08-14T04:48:11.407Z,10.30
2017-08-14T04:50:39.702Z,10.03
2017-08-14T04:53:08.207Z,11.60
2017-08-14T04:55:36.530Z,10.20
2017-08-14T04:58:05.536Z,9.40
2017-08-14T05:00:34.587Z,9.37
2017-08-14T05:03:02.864Z,9.17
2017-08-14T05:05:31.155Z,9.90
2017-08-14T05:07:59.418Z,9.50
2017-08-14T05:10:27.713Z,9.57
2017-08-14T05:12:55.987Z,10.27
2017-08-14T05:15:24.241Z,8.70
2017-08-14T05:17:52.474Z,9.77
2017-08-14T05:20:21.508Z,8.83
2017-08-14T05:22:49.766Z,8.20
2017-08-14T05:25:18.022Z,10.17
2017-08-14T05:27:47.069Z,11.10
2017-08-14T05:30:15.302Z,8.37
2017-08-14T05:32:43.642Z,8.67
2017-08-14T05:35:11.990Z,8.60
2017-08-14T05:37:40.238Z,8.87
2017-08-14T05:40:09.246Z,9.33
2017-08-14T05:42:37.496Z,8.27
2017-08-14T05:45:05.732Z,8.73
2017-08-14T05:47:34.093Z,8.00
2017-08-14T05:50:03.097Z,7.70
2017-08-14T05:52:31.399Z,8.43
2017-08-14T05:55:00.429Z,7.50
2017-08-14T05:57:28.698Z,7.90
2017-08-14T05:59:57.697Z,7.87
2017-08-14T06:02:26.723Z,8.23
2017-08-14T06:04:54.986Z,8.30
2017-08-14T06:07:23.201Z,7.77
2017-08-14T06:09:51.512Z,7.57
2017-08-14T06:12:19.748Z,7.93
2017-08-14T06:14:47.984Z,13.60
2017-08-14T06:17:16.247Z,8.73
2017-08-14T06:19:45.263Z,12.33
2017-08-14T06:22:13.509Z,7.57
2017-08-14T06:24:42.573Z,7.10
2017-08-14T06:27:10.806Z,6.80
2017-08-14T06:29:39.087Z,7.13
2017-08-14T06:32:07.344Z,6.00
2017-08-14T06:34:36.375Z,5.90
2017-08-14T06:37:04.641Z,6.10
2017-08-14T06:39:32.885Z,5.90
2017-08-14T06:42:01.742Z,6.40
2017-08-14T06:44:30.822Z,6.10
2017-08-14T06:46:59.105Z,6.00
2017-08-14T06:49:27.353Z,5.33
2017-08-14T06:51:55.635Z,5.63
2017-08-14T06:54:23.905Z,5.13
2017-08-14T06:56:52.950Z,5.33
2017-08-14T06:59:21.197Z,4.87
2017-08-14T07:01:49.481Z,5.03
2017-08-14T07:04:17.737Z,5.47
2017-08-14T07:06:46.004Z,5.80
2017-08-14T07:09:14.241Z,4.90
2017-08-14T07:11:42.494Z,6.17
2017-08-14T07:14:10.751Z,4.93
2017-08-14T07:16:38.978Z,4.80
2017-08-14T07:19:07.235Z,4.60
2017-08-14T07:21:35.495Z,4.53
2017-08-14T07:24:03.732Z,4.30
2017-08-14T07:26:32.794Z,5.20
2017-08-14T07:29:01.065Z,3.30
2017-08-14T07:31:29.345Z,3.97
2017-08-14T07:33:57.700Z,3.13
2017-08-14T07:36:25.945Z,3.40
2017-08-14T07:38:54.951Z,3.90
2017-08-14T07:41:23.205Z,3.97
2017-08-14T07:43:52.265Z,3.40
2017-08-14T07:46:20.509Z,4.10
2017-08-14T07:48:48.797Z,3.43
2017-08-14T07:51:17.798Z,4.23
2017-08-14T07:53:46.213Z,2.80
2017-08-14T07:56:14.441Z,3.50
2017-08-14T07:58:42.741Z,3.63
2017-08-14T08:01:10.986Z,3.10
2017-08-14T08:03:39.217Z,3.13
2017-08-14T08:06:07.473Z,2.90
2017-08-14T08:08:35.715Z,3.50
2017-08-14T08:11:03.952Z,3.90
2017-08-14T08:13:32.229Z,3.67
2017-08-14T08:16:01.300Z,3.40
2017-08-14T08:18:29.600Z,2.50
2017-08-14T08:20:58.014Z,3.47
2017-08-14T08:23:26.231Z,3.80
2017-08-14T08:25:54.515Z,2.97
2017-08-14T08:28:22.739Z,3.70
2017-08-14T08:30:51.768Z,3.40
2017-08-14T08:33:20.071Z,5.70
2017-08-14T08:35:48.349Z,4.23
2017-08-14T08:38:16.916Z,3.10
2017-08-14T08:40:45.155Z,3.50
2017-08-14T08:43:14.194Z,4.13
2017-08-14T08:45:43.411Z,4.07
2017-08-14T08:48:11.669Z,3.70
2017-08-14T08:50:39.986Z,3.50
2017-08-14T08:53:08.226Z,3.63
2017-08-14T08:55:36.478Z,4.30
2017-08-14T08:58:04.987Z,3.73
2017-08-14T09:00:33.253Z,3.60
2017-08-14T09:03:02.673Z,4.33
2017-08-14T09:05:31.856Z,3.57
2017-08-14T09:08:00.326Z,3.87
2017-08-14T09:10:29.305Z,3.90
2017-08-14T09:12:57.534Z,4.63
2017-08-14T09:15:25.841Z,4.80
2017-08-14T09:17:54.883Z,4.67
2017-08-14T09:20:23.123Z,4.37
2017-08-14T09:22:52.154Z,4.63
2017-08-14T09:25:20.427Z,4.90
2017-08-14T09:27:48.658Z,4.30
2017-08-14T09:30:17.732Z,4.20
2017-08-14T09:32:45.956Z,4.40
2017-08-14T09:35:14.197Z,4.23
2017-08-14T09:37:42.447Z,4.47
2017-08-14T09:40:10.722Z,5.07
2017-08-14T09:42:38.980Z,3.93
2017-08-14T09:45:07.224Z,3.33
2017-08-14T09:47:36.273Z,4.73
2017-08-14T09:50:04.529Z,4.20
2017-08-14T09:52:32.762Z,4.03
2017-08-14T09:55:01.788Z,3.53
2017-08-14T09:57:30.047Z,3.80
2017-08-14T09:59:58.271Z,3.23
2017-08-14T10:02:26.530Z,3.83
2017-08-14T10:04:54.790Z,3.40
2017-08-14T10:07:23.054Z,3.40
2017-08-14T10:09:51.353Z,3.93
2017-08-14T10:12:19.573Z,3.73
2017-08-14T10:14:47.825Z,3.93
2017-08-14T10:17:16.096Z,3.30
2017-08-14T10:19:44.382Z,4.13
2017-08-14T10:22:12.698Z,3.47
2017-08-14T10:24:40.970Z,3.70
2017-08-14T10:27:09.198Z,3.70
2017-08-14T10:29:37.885Z,3.63
2017-08-14T10:32:06.142Z,3.03
2017-08-14T10:34:34.396Z,3.10
2017-08-14T10:37:03.407Z,3.73
2017-08-14T10:39:31.688Z,3.00
2017-08-14T10:41:59.959Z,3.40
2017-08-14T10:44:28.974Z,3.00
2017-08-14T10:46:57.209Z,3.13
2017-08-14T10:49:25.525Z,2.47
2017-08-14T10:51:53.833Z,3.20
2017-08-14T10:54:22.072Z,3.17
2017-08-14T10:56:50.337Z,3.10
2017-08-14T10:59:18.598Z,8.57
2017-08-14T11:01:47.637Z,2.77
2017-08-14T11:04:15.883Z,3.47
2017-08-14T11:06:44.915Z,2.90
2017-08-14T11:09:13.197Z,3.43
2017-08-14T11:11:41.435Z,3.13
2017-08-14T11:14:10.563Z,2.80
2017-08-14T11:16:39.972Z,3.50
2017-08-14T11:19:08.266Z,2.73
2017-08-14T11:21:36.470Z,3.53
2017-08-14T11:24:04.747Z,3.30
2017-08-14T11:26:33.023Z,2.70
2017-08-14T11:29:01.273Z,2.80
2017-08-14T11:31:29.593Z,3.50
2017-08-14T11:33:58.613Z,2.83
2017-08-14T11:36:26.846Z,2.83
2017-08-14T11:38:55.113Z,3.10
2017-08-14T11:41:23.393Z,2.87
2017-08-14T11:43:51.646Z,3.53
2017-08-14T11:46:19.922Z,4.00
2017-08-14T11:48:48.551Z,3.30
2017-08-14T11:51:16.938Z,3.93
2017-08-14T11:53:45.183Z,3.13
2017-08-14T11:56:13.435Z,4.43
2017-08-14T11:58:41.726Z,3.80
2017-08-14T12:01:09.959Z,3.57
2017-08-14T12:03:38.266Z,2.90
2017-08-14T12:06:06.507Z,5.90
2017-08-14T12:08:35.196Z,3.17
2017-08-14T12:11:03.449Z,3.13
2017-08-14T12:13:32.470Z,3.23
2017-08-14T12:16:01.592Z,3.10
2017-08-14T12:18:29.823Z,4.40
2017-08-14T12:20:58.837Z,3.50
2017-08-14T12:23:27.126Z,3.53
2017-08-14T12:25:55.418Z,4.10
2017-08-14T12:28:23.662Z,3.23
2017-08-14T12:30:52.689Z,2.80
2017-08-14T12:33:20.943Z,3.10
2017-08-14T12:35:49.185Z,3.57
2017-08-14T12:38:17.419Z,3.30
2017-08-14T12:40:45.698Z,3.17
2017-08-14T12:43:14.769Z,2.57
2017-08-14T12:45:43.039Z,3.53
2017-08-14T12:48:11.273Z,3.20
2017-08-14T12:50:39.576Z,3.00
2017-08-14T12:53:07.807Z,3.60
2017-08-14T12:55:36.094Z,3.40
2017-08-14T12:58:04.365Z,4.00
2017-08-14T13:00:32.597Z,3.13
2017-08-14T13:03:00.834Z,2.70
2017-08-14T13:05:29.083Z,3.17
2017-08-14T13:07:57.345Z,2.60
2017-08-14T13:10:25.768Z,3.20
2017-08-14T13:12:54.079Z,2.60
2017-08-14T13:15:23.119Z,2.80
2017-08-14T13:17:51.433Z,2.53
2017-08-14T13:20:20.593Z,2.50
2017-08-14T13:22:48.831Z,3.00
2017-08-14T13:25:17.890Z,2.53
2017-08-14T13:27:46.154Z,2.80
2017-08-14T13:30:14.421Z,3.33
2017-08-14T13:32:42.693Z,2.80
2017-08-14T13:35:10.966Z,2.30
2017-08-14T13:37:39.264Z,3.00
2017-08-14T13:40:07.517Z,4.20
2017-08-14T13:42:37.391Z,3.67
2017-08-14T13:45:05.642Z,2.80
2017-08-14T13:47:33.888Z,2.27
2017-08-14T13:50:02.137Z,2.47
2017-08-14T13:52:31.160Z,3.60
2017-08-14T13:54:59.705Z,2.43
2017-08-14T13:57:28.805Z,3.10
2017-08-14T13:59:57.818Z,3.50
2017-08-14T14:02:26.119Z,3.80
2017-08-14T14:04:54.373Z,2.97
2017-08-14T14:07:23.431Z,2.87
2017-08-14T14:09:51.659Z,3.00
2017-08-14T14:12:19.946Z,4.90
2017-08-14T14:14:48.215Z,3.40
2017-08-14T14:17:16.453Z,2.70
2017-08-14T14:19:45.501Z,2.53
2017-08-14T14:22:13.757Z,2.20
2017-08-14T14:24:41.993Z,3.07
2017-08-14T14:27:10.306Z,2.83
2017-08-14T14:29:39.421Z,2.47
2017-08-14T14:32:07.666Z,6.20
2017-08-14T14:34:35.929Z,3.03
2017-08-14T14:37:04.174Z,3.20
2017-08-14T14:39:32.453Z,2.90
2017-08-14T14:42:00.866Z,2.60
2017-08-14T14:44:29.097Z,2.20
2017-08-14T14:46:57.383Z,3.10
2017-08-14T14:49:25.601Z,2.60
2017-08-14T14:51:53.911Z,3.13
2017-08-14T14:54:22.200Z,2.20
2017-08-14T14:56:50.439Z,2.77
2017-08-14T14:59:18.759Z,9.90
2017-08-14T15:01:47.039Z,3.23
2017-08-14T15:04:15.306Z,2.77
2017-08-14T15:06:43.601Z,3.50
2017-08-14T15:09:11.822Z,2.73
2017-08-14T15:11:40.857Z,2.30
2017-08-14T15:14:09.111Z,2.83
2017-08-14T15:16:38.082Z,2.90
2017-08-14T15:19:06.360Z,4.67
2017-08-14T15:21:35.500Z,3.90
2017-08-14T15:24:04.475Z,3.27
2017-08-14T15:26:32.707Z,3.23
2017-08-14T15:29:00.991Z,3.00
2017-08-14T15:31:29.256Z,2.50
2017-08-14T15:33:57.555Z,3.30
2017-08-14T15:36:26.583Z,3.33
2017-08-14T15:38:54.946Z,3.10
2017-08-14T15:41:23.990Z,3.80
2017-08-14T15:43:52.254Z,2.83
2017-08-14T15:46:20.502Z,3.10
2017-08-14T15:48:49.534Z,3.40
2017-08-14T15:51:17.787Z,3.10
2017-08-14T15:53:46.039Z,4.20
2017-08-14T15:56:15.042Z,2.47
2017-08-14T15:58:43.310Z,3.13
2017-08-14T16:01:11.587Z,2.97
2017-08-14T16:03:40.624Z,3.63
2017-08-14T16:06:08.898Z,3.30
2017-08-14T16:08:37.171Z,3.43
2017-08-14T16:11:05.412Z,3.17
2017-08-14T16:13:33.668Z,2.67
2017-08-14T16:16:01.949Z,4.10
2017-08-14T16:18:31.137Z,4.30
2017-08-14T16:20:59.390Z,3.37
2017-08-14T16:23:27.694Z,3.30
2017-08-14T16:25:55.947Z,3.70
2017-08-14T16:28:24.219Z,3.93
2017-08-14T16:30:52.457Z,4.03
2017-08-14T16:33:21.516Z,4.10
2017-08-14T16:35:49.769Z,4.90
2017-08-14T16:38:18.033Z,3.53
2017-08-14T16:40:46.297Z,3.87
2017-08-14T16:43:14.580Z,3.43
2017-08-14T16:45:43.666Z,3.30
2017-08-14T16:48:13.994Z,3.60
2017-08-14T16:50:43.028Z,3.83
2017-08-14T16:53:11.283Z,3.37
2017-08-14T16:55:40.283Z,3.67
2017-08-14T16:58:09.070Z,4.67
2017-08-14T17:00:37.666Z,3.50
2017-08-14T17:03:06.204Z,3.40
2017-08-14T17:05:34.460Z,3.30
2017-08-14T17:08:04.089Z,3.10
2017-08-14T17:10:33.075Z,4.00
2017-08-14T17:13:02.497Z,3.67
2017-08-14T17:15:30.925Z,3.40
2017-08-14T17:17:59.247Z,3.33
2017-08-14T17:20:28.894Z,3.10
2017-08-14T17:22:57.490Z,3.33
2017-08-14T17:25:25.811Z,3.73
2017-08-14T17:27:54.823Z,3.10
2017-08-14T17:30:23.947Z,3.20
2017-08-14T17:32:52.557Z,3.47
2017-08-14T17:35:20.867Z,4.57
2017-08-14T17:37:49.157Z,4.13
2017-08-14T17:40:18.794Z,4.40
2017-08-14T17:42:47.058Z,3.10
2017-08-14T17:45:15.685Z,3.10
2017-08-14T17:47:45.988Z,3.30
2017-08-14T17:50:14.290Z,3.63
2017-08-14T17:52:42.577Z,3.77
2017-08-14T17:55:10.830Z,3.77
2017-08-14T17:57:40.018Z,3.40
2017-08-14T18:00:08.297Z,3.20
2017-08-14T18:02:36.582Z,3.33
2017-08-14T18:05:05.222Z,4.00
2017-08-14T18:07:34.251Z,3.17
2017-08-14T18:10:02.597Z,3.90
2017-08-14T18:12:31.626Z,3.40
2017-08-14T18:15:00.642Z,2.93
2017-08-14T18:17:29.406Z,3.37
2017-08-14T18:19:58.444Z,4.23
2017-08-14T18:22:26.811Z,19.53
2017-08-14T18:24:55.467Z,7.20
2017-08-14T18:27:23.737Z,5.10
2017-08-14T18:29:52.043Z,4.90
2017-08-14T18:32:20.292Z,4.33
2017-08-14T18:34:49.555Z,4.50
2017-08-14T18:37:19.051Z,4.10
2017-08-14T18:39:48.195Z,4.07
2017-08-14T18:42:17.661Z,3.80
2017-08-14T18:44:45.930Z,3.70
2017-08-14T18:47:14.196Z,4.10
2017-08-14T18:49:42.503Z,5.03
2017-08-14T18:52:11.520Z,4.70
2017-08-14T18:54:40.246Z,4.60
2017-08-14T18:57:09.063Z,4.63
2017-08-14T18:59:37.340Z,4.50
2017-08-14T19:02:05.572Z,4.37
2017-08-14T19:04:33.911Z,3.47
2017-08-14T19:07:03.013Z,4.93
2017-08-14T19:09:33.045Z,4.43
2017-08-14T19:12:00.340Z,4.57
2017-08-14T19:14:29.509Z,4.80
2017-08-14T19:16:59.415Z,4.10
2017-08-14T19:19:27.746Z,4.57
2017-08-14T19:21:56.391Z,4.87
2017-08-14T19:24:24.667Z,5.50
2017-08-14T19:26:53.667Z,5.20
2017-08-14T19:29:21.946Z,5.13
2017-08-14T19:31:50.479Z,4.30
2017-08-14T19:34:18.754Z,4.67
2017-08-14T19:36:48.146Z,4.23
2017-08-14T19:39:16.452Z,4.10
2017-08-14T19:41:44.751Z,5.63
2017-08-14T19:44:13.143Z,5.57
2017-08-14T19:46:42.143Z,5.40
2017-08-14T19:49:11.583Z,5.63
2017-08-14T19:51:39.938Z,5.20
2017-08-14T19:54:08.765Z,5.20
2017-08-14T19:56:37.607Z,5.30
2017-08-14T19:59:07.500Z,5.20
2017-08-14T20:01:35.939Z,6.20
2017-08-14T20:04:04.501Z,5.40
2017-08-14T20:06:33.213Z,5.43
2017-08-14T20:09:01.647Z,5.60
2017-08-14T20:11:30.348Z,6.23
2017-08-14T20:13:59.517Z,4.97
2017-08-14T20:16:27.850Z,4.70
2017-08-14T20:18:56.357Z,6.27
2017-08-14T20:21:25.457Z,5.53
2017-08-14T20:23:56.280Z,5.30
2017-08-14T20:26:25.741Z,5.53
2017-08-14T20:28:55.556Z,10.83
2017-08-14T20:31:24.321Z,7.83
2017-08-14T20:33:53.404Z,6.20
2017-08-14T20:36:22.443Z,6.70
2017-08-14T20:38:50.743Z,5.80
2017-08-14T20:41:19.628Z,6.07
2017-08-14T20:43:48.810Z,5.87
2017-08-14T20:46:17.157Z,5.23
2017-08-14T20:48:46.690Z,5.17
2017-08-14T20:51:17.097Z,6.10
2017-08-14T20:53:46.088Z,6.10
2017-08-14T20:56:17.349Z,4.70
2017-08-14T20:58:46.175Z,5.77
2017-08-14T21:01:15.455Z,5.13
2017-08-14T21:03:43.788Z,5.17
2017-08-14T21:06:12.873Z,5.67
2017-08-14T21:08:42.637Z,5.63
2017-08-14T21:11:10.914Z,7.07
2017-08-14T21:13:39.149Z,5.40
2017-08-14T21:16:08.189Z,6.17
2017-08-14T21:18:36.863Z,5.00
2017-08-14T21:21:05.854Z,5.73
2017-08-14T21:23:34.115Z,6.07
2017-08-14T21:26:03.392Z,5.10
2017-08-14T21:28:31.860Z,5.70
2017-08-14T21:31:00.883Z,4.83
2017-08-14T21:33:30.152Z,6.10
2017-08-14T21:35:58.400Z,5.57
2017-08-14T21:38:26.668Z,5.33
2017-08-14T21:40:54.933Z,5.10
2017-08-14T21:43:23.388Z,4.60
2017-08-14T21:45:52.668Z,6.00
2017-08-14T21:48:20.879Z,4.90
2017-08-14T21:50:49.146Z,5.17
2017-08-14T21:53:17.414Z,4.67
2017-08-14T21:55:45.656Z,4.80
2017-08-14T21:58:13.921Z,4.50
2017-08-14T22:00:42.179Z,5.90
2017-08-14T22:03:10.462Z,5.20
2017-08-14T22:05:38.706Z,5.07
2017-08-14T22:08:07.016Z,5.90
2017-08-14T22:10:35.267Z,5.80
2017-08-14T22:13:03.529Z,5.27
2017-08-14T22:15:32.603Z,5.13
2017-08-14T22:18:01.419Z,4.70
2017-08-14T22:20:29.674Z,5.70
2017-08-14T22:22:58.986Z,5.50
2017-08-14T22:25:28.025Z,4.97
2017-08-14T22:27:56.275Z,5.50
2017-08-14T22:30:26.840Z,4.90
2017-08-14T22:32:55.066Z,5.20
2017-08-14T22:35:24.074Z,4.70
2017-08-14T22:37:53.180Z,5.10
2017-08-14T22:40:22.611Z,4.93
2017-08-14T22:42:50.896Z,5.00
2017-08-14T22:45:20.288Z,4.23
2017-08-14T22:47:49.504Z,5.00
2017-08-14T22:50:17.872Z,4.60
2017-08-14T22:52:46.117Z,4.50
2017-08-14T22:55:15.139Z,4.17
2017-08-14T22:57:43.982Z,3.83
2017-08-14T23:00:13.282Z,3.90
2017-08-14T23:02:42.313Z,3.70
2017-08-14T23:05:10.767Z,4.40
2017-08-14T23:07:39.029Z,4.10
2017-08-14T23:10:07.927Z,3.53
2017-08-14T23:12:36.961Z,4.10
2017-08-14T23:15:05.987Z,4.43
2017-08-14T23:17:34.240Z,3.30
2017-08-14T23:20:02.475Z,4.33
2017-08-14T23:22:30.982Z,3.70
2017-08-14T23:24:59.263Z,4.33
2017-08-14T23:27:28.266Z,4.40
2017-08-14T23:29:56.600Z,4.67
2017-08-14T23:32:24.866Z,4.47
2017-08-14T23:34:53.109Z,4.27
2017-08-14T23:37:21.363Z,3.87
2017-08-14T23:39:49.637Z,4.60
2017-08-14T23:42:17.884Z,4.37
2017-08-14T23:44:46.121Z,3.80
2017-08-14T23:47:14.378Z,3.70
2017-08-14T23:49:42.601Z,4.40
2017-08-14T23:52:10.848Z,3.50
2017-08-14T23:54:39.096Z,4.27
2017-08-14T23:57:08.089Z,4.47
2017-08-14T23:59:36.396Z,3.60
